createdAt,value
2023-05-19T00:01:31.169Z,61.90
2023-05-19T00:04:02.888Z,62.10
2023-05-19T00:06:32.219Z,62.20
2023-05-19T00:09:09.964Z,62.40
2023-05-19T00:11:38.536Z,62.70
2023-05-19T00:14:10.046Z,62.70
2023-05-19T00:16:38.083Z,63.00
2023-05-19T00:19:06.662Z,63.10
2023-05-19T00:21:33.792Z,63.00
2023-05-19T00:24:01.337Z,63.20
2023-05-19T00:26:28.444Z,63.70
2023-05-19T00:29:02.551Z,63.70
2023-05-19T00:31:30.106Z,64.10
2023-05-19T00:33:58.142Z,64.10
2023-05-19T00:36:26.442Z,64.20
2023-05-19T00:38:53.666Z,64.30
2023-05-19T00:41:21.154Z,64.40
2023-05-19T00:43:48.206Z,64.50
2023-05-19T00:46:15.591Z,64.70
2023-05-19T00:48:44.806Z,64.80
2023-05-19T00:51:16.949Z,64.80
2023-05-19T00:53:49.334Z,65.00
2023-05-19T00:56:17.497Z,65.20
2023-05-19T00:58:46.186Z,65.30
2023-05-19T01:01:17.233Z,65.50
2023-05-19T01:03:45.093Z,65.50
2023-05-19T01:06:12.986Z,65.60
2023-05-19T01:08:42.224Z,65.70
2023-05-19T01:11:09.296Z,66.00
2023-05-19T01:13:36.991Z,66.10
2023-05-19T01:16:16.153Z,66.10
2023-05-19T01:19:01.962Z,66.30
2023-05-19T01:21:36.989Z,66.30
2023-05-19T01:24:23.027Z,66.50
2023-05-19T01:27:11.930Z,66.50
2023-05-19T01:29:44.685Z,66.60
2023-05-19T01:32:13.354Z,66.40
2023-05-19T01:34:44.225Z,66.60
2023-05-19T01:37:13.271Z,66.90
2023-05-19T01:39:41.514Z,67.10
2023-05-19T01:42:09.689Z,67.10
2023-05-19T01:44:37.659Z,67.20
2023-05-19T01:47:05.815Z,67.10
2023-05-19T01:49:32.947Z,67.20
2023-05-19T01:51:59.971Z,67.40
2023-05-19T01:54:27.510Z,67.60
2023-05-19T01:57:13.074Z,67.90
2023-05-19T02:00:05.627Z,68.10
2023-05-19T02:03:00.086Z,68.00
2023-05-19T02:05:31.530Z,68.30
2023-05-19T02:08:30.999Z,68.20
2023-05-19T02:11:04.358Z,68.30
2023-05-19T02:13:36.692Z,68.30
2023-05-19T02:16:06.073Z,68.50
2023-05-19T02:18:34.184Z,68.60
2023-05-19T02:21:02.362Z,68.80
2023-05-19T02:23:29.469Z,68.90
2023-05-19T02:25:57.684Z,68.90
2023-05-19T02:28:28.594Z,69.00
2023-05-19T02:30:55.753Z,69.60
2023-05-19T02:33:26.662Z,69.50
2023-05-19T02:35:53.775Z,69.60
2023-05-19T02:38:21.926Z,69.50
2023-05-19T02:40:53.045Z,69.50
2023-05-19T02:43:20.318Z,69.50
2023-05-19T02:45:47.378Z,69.80
2023-05-19T02:48:14.810Z,69.70
2023-05-19T02:50:43.110Z,69.90
2023-05-19T02:53:10.157Z,70.20
2023-05-19T02:55:37.589Z,70.10
2023-05-19T02:58:05.343Z,70.40
2023-05-19T03:00:32.810Z,70.40
2023-05-19T03:03:02.828Z,70.30
2023-05-19T03:05:31.233Z,70.50
2023-05-19T03:07:58.447Z,70.80
2023-05-19T03:10:25.463Z,70.70
2023-05-19T03:12:52.658Z,70.80
2023-05-19T03:15:21.003Z,70.90
2023-05-19T03:17:48.243Z,70.80
2023-05-19T03:20:15.895Z,71.10
2023-05-19T03:22:43.679Z,71.20
2023-05-19T03:25:10.948Z,71.20
2023-05-19T03:27:38.284Z,71.30
2023-05-19T03:30:07.054Z,71.40
2023-05-19T03:32:40.471Z,71.20
2023-05-19T03:35:07.948Z,71.10
2023-05-19T03:37:34.963Z,71.20
2023-05-19T03:40:04.196Z,71.20
2023-05-19T03:42:31.933Z,71.60
2023-05-19T03:44:59.312Z,71.70
2023-05-19T03:47:27.096Z,72.00
2023-05-19T03:50:11.957Z,72.20
2023-05-19T03:52:48.931Z,72.10
2023-05-19T03:55:30.445Z,72.00
2023-05-19T03:57:57.768Z,71.90
2023-05-19T04:00:24.702Z,72.10
2023-05-19T04:02:52.444Z,72.50
2023-05-19T04:05:19.559Z,72.40
2023-05-19T04:07:46.960Z,72.70
2023-05-19T04:10:19.337Z,72.70
2023-05-19T04:12:48.096Z,72.90
2023-05-19T04:15:16.373Z,72.90
2023-05-19T04:17:43.515Z,72.80
2023-05-19T04:20:12.956Z,72.80
2023-05-19T04:22:40.066Z,72.70
2023-05-19T04:25:09.084Z,72.80
2023-05-19T04:27:39.325Z,72.90
2023-05-19T04:30:07.733Z,72.90
2023-05-19T04:32:37.656Z,73.00
2023-05-19T04:35:05.927Z,73.00
2023-05-19T04:37:33.116Z,73.00
2023-05-19T04:40:01.621Z,73.10
2023-05-19T04:42:30.913Z,73.00
2023-05-19T04:45:00.547Z,73.10
2023-05-19T04:47:30.204Z,73.20
2023-05-19T04:50:01.288Z,73.10
2023-05-19T04:52:29.002Z,73.20
2023-05-19T04:54:56.262Z,73.20
2023-05-19T04:57:25.135Z,73.20
2023-05-19T04:59:53.035Z,73.40
2023-05-19T05:02:21.808Z,73.40
2023-05-19T05:04:49.084Z,73.30
2023-05-19T05:07:17.206Z,73.30
2023-05-19T05:09:45.145Z,73.20
2023-05-19T05:12:13.600Z,73.20
2023-05-19T05:14:41.967Z,73.30
2023-05-19T05:17:11.766Z,73.50
2023-05-19T05:19:39.168Z,73.50
2023-05-19T05:22:08.481Z,73.50
2023-05-19T05:24:39.289Z,73.50
2023-05-19T05:27:08.295Z,73.50
2023-05-19T05:29:35.701Z,73.40
2023-05-19T05:32:05.089Z,73.40
2023-05-19T05:34:32.832Z,73.30
2023-05-19T05:36:59.917Z,73.20
2023-05-19T05:39:28.561Z,73.20
2023-05-19T05:41:56.110Z,73.10
2023-05-19T05:44:23.062Z,73.00
2023-05-19T05:46:51.004Z,73.00
2023-05-19T05:49:18.480Z,73.00
2023-05-19T05:51:57.868Z,72.90
2023-05-19T05:54:34.127Z,72.70
2023-05-19T05:57:02.663Z,72.50
2023-05-19T05:59:30.175Z,72.40
2023-05-19T06:01:57.535Z,72.30
2023-05-19T06:04:25.794Z,72.20
2023-05-19T06:07:01.432Z,72.00
2023-05-19T06:09:33.029Z,71.80
2023-05-19T06:12:01.013Z,71.60
2023-05-19T06:14:32.741Z,71.50
2023-05-19T06:17:17.828Z,71.10
2023-05-19T06:19:44.973Z,70.90
2023-05-19T06:22:11.939Z,70.70
2023-05-19T06:24:39.659Z,70.60
2023-05-19T06:27:09.160Z,70.40
2023-05-19T06:29:36.144Z,70.10
2023-05-19T06:32:06.216Z,69.90
2023-05-19T06:34:33.501Z,69.50
2023-05-19T06:37:02.698Z,69.40
2023-05-19T06:39:31.644Z,69.00
2023-05-19T06:41:58.698Z,68.80
2023-05-19T06:44:44.501Z,68.80
2023-05-19T06:47:12.518Z,68.50
2023-05-19T06:49:39.512Z,68.10
2023-05-19T06:52:07.013Z,67.70
2023-05-19T06:54:34.517Z,67.20
2023-05-19T06:57:02.374Z,67.10
2023-05-19T06:59:29.502Z,67.00
2023-05-19T07:01:56.679Z,66.80
2023-05-19T07:04:24.203Z,66.80
2023-05-19T07:06:51.410Z,66.70
2023-05-19T07:09:18.800Z,66.50
2023-05-19T07:11:47.004Z,66.50
2023-05-19T07:14:13.892Z,66.30
2023-05-19T07:16:41.524Z,66.20
2023-05-19T07:19:08.783Z,65.80
2023-05-19T07:21:36.422Z,65.40
2023-05-19T07:24:04.144Z,65.00
2023-05-19T07:26:31.314Z,64.30
2023-05-19T07:28:59.522Z,64.40
2023-05-19T07:31:26.805Z,63.50
2023-05-19T07:33:54.888Z,62.80
2023-05-19T07:36:22.122Z,62.60
2023-05-19T07:38:49.377Z,61.90
2023-05-19T07:41:16.537Z,61.70
2023-05-19T07:43:43.915Z,61.60
2023-05-19T07:46:11.002Z,61.00
2023-05-19T07:48:38.107Z,60.50
2023-05-19T07:51:05.368Z,59.10
2023-05-19T07:53:32.428Z,58.60
2023-05-19T07:55:59.622Z,57.70
2023-05-19T07:58:27.066Z,58.00
2023-05-19T08:00:56.736Z,58.00
2023-05-19T08:03:24.052Z,57.80
2023-05-19T08:05:51.482Z,57.50
2023-05-19T08:08:19.789Z,57.10
2023-05-19T08:13:28.376Z,55.80
2023-05-19T08:15:59.841Z,56.30
2023-05-19T08:18:27.315Z,55.70
2023-05-19T08:20:54.846Z,54.70
2023-05-19T08:23:22.508Z,54.40
2023-05-19T08:25:49.583Z,54.00
2023-05-19T08:28:16.613Z,54.10
2023-05-19T08:30:43.890Z,53.90
2023-05-19T08:33:11.066Z,55.30
2023-05-19T08:35:38.686Z,56.00
2023-05-19T08:38:06.961Z,54.50
2023-05-19T08:40:37.105Z,51.60
2023-05-19T08:43:05.011Z,49.30
2023-05-19T08:45:38.759Z,47.40
2023-05-19T08:51:13.910Z,44.30
2023-05-19T08:53:45.332Z,44.40
2023-05-19T08:56:20.660Z,43.70
2023-05-19T08:58:51.334Z,41.50
2023-05-19T09:01:20.078Z,41.00
2023-05-19T09:03:49.736Z,40.20
2023-05-19T09:06:17.070Z,39.80
2023-05-19T09:08:44.553Z,37.10
2023-05-19T09:11:11.964Z,37.00
2023-05-19T09:13:40.417Z,35.40
2023-05-19T09:16:08.379Z,36.50
2023-05-19T09:18:39.311Z,35.70
2023-05-19T09:21:07.438Z,35.60
2023-05-19T09:23:34.829Z,35.30
2023-05-19T09:26:08.597Z,34.70
2023-05-19T09:28:37.058Z,34.10
2023-05-19T09:31:04.976Z,33.00
2023-05-19T09:33:35.507Z,33.70
2023-05-19T09:36:03.571Z,33.60
2023-05-19T09:38:31.013Z,33.70
2023-05-19T09:41:00.434Z,33.30
2023-05-19T09:43:31.844Z,32.40
2023-05-19T09:46:14.821Z,32.60
2023-05-19T09:48:42.594Z,31.30
2023-05-19T09:51:12.715Z,30.70
2023-05-19T09:53:39.976Z,30.90
2023-05-19T09:56:08.873Z,30.80
2023-05-19T09:58:36.544Z,29.90
2023-05-19T10:01:05.053Z,29.30
2023-05-19T10:03:33.471Z,28.30
2023-05-19T10:06:02.223Z,28.00
2023-05-19T10:08:30.850Z,28.40
2023-05-19T10:10:58.487Z,27.80
2023-05-19T10:13:26.994Z,26.90
2023-05-19T10:15:58.765Z,27.30
2023-05-19T10:18:30.086Z,27.20
2023-05-19T10:20:58.962Z,26.40
2023-05-19T10:23:26.267Z,26.00
2023-05-19T10:25:56.994Z,26.40
2023-05-19T10:28:28.130Z,25.90
2023-05-19T10:30:59.406Z,26.80
2023-05-19T10:33:47.185Z,25.70
2023-05-19T10:36:36.434Z,25.30
2023-05-19T10:39:13.620Z,26.60
2023-05-19T10:41:53.897Z,26.50
2023-05-19T10:44:23.730Z,26.30
2023-05-19T10:46:51.714Z,25.20
2023-05-19T10:49:22.992Z,25.60
2023-05-19T10:51:52.497Z,25.00
2023-05-19T10:54:40.840Z,24.90
2023-05-19T10:57:08.709Z,24.80
2023-05-19T10:59:39.971Z,24.50
2023-05-19T11:02:08.828Z,24.40
2023-05-19T11:04:51.808Z,23.90
2023-05-19T11:07:21.006Z,24.00
2023-05-19T11:09:52.495Z,24.00
2023-05-19T11:12:24.742Z,23.90
2023-05-19T11:14:55.903Z,23.50
2023-05-19T11:17:25.631Z,23.50
2023-05-19T11:19:54.853Z,22.80
2023-05-19T11:22:26.745Z,23.20
2023-05-19T11:24:56.599Z,23.20
2023-05-19T11:27:34.346Z,22.90
2023-05-19T11:30:20.188Z,23.40
2023-05-19T11:32:50.607Z,23.60
2023-05-19T11:35:21.095Z,23.10
2023-05-19T11:37:51.329Z,23.70
2023-05-19T11:40:18.579Z,23.20
2023-05-19T11:42:45.523Z,23.00
2023-05-19T11:45:12.446Z,23.30
2023-05-19T11:47:56.340Z,23.30
2023-05-19T11:50:26.691Z,23.10
2023-05-19T11:52:54.668Z,22.80
2023-05-19T11:55:22.829Z,22.80
2023-05-19T11:58:04.993Z,22.90
2023-05-19T12:00:38.073Z,23.10
2023-05-19T12:03:05.834Z,22.60
2023-05-19T12:05:38.035Z,22.90
2023-05-19T12:08:07.655Z,22.70
2023-05-19T12:10:35.900Z,22.70
2023-05-19T12:13:03.467Z,22.80
2023-05-19T12:15:32.510Z,22.80
2023-05-19T12:18:03.135Z,22.80
2023-05-19T12:20:36.043Z,22.20
2023-05-19T12:23:04.104Z,22.20
2023-05-19T12:25:31.930Z,22.30
2023-05-19T12:28:05.683Z,22.00
2023-05-19T12:30:34.841Z,22.30
2023-05-19T12:33:03.105Z,21.70
2023-05-19T12:35:33.636Z,21.70
2023-05-19T12:38:07.522Z,22.00
2023-05-19T12:40:35.716Z,22.00
2023-05-19T12:43:03.985Z,23.00
2023-05-19T12:45:39.681Z,23.10
2023-05-19T12:48:11.741Z,22.80
2023-05-19T12:50:39.109Z,22.90
2023-05-19T12:53:09.388Z,23.20
2023-05-19T12:55:44.028Z,23.10
2023-05-19T12:58:16.134Z,23.60
2023-05-19T13:00:45.467Z,24.30
2023-05-19T13:03:20.101Z,25.00
2023-05-19T13:05:49.354Z,25.50
2023-05-19T13:08:18.406Z,25.40
2023-05-19T13:10:47.000Z,25.20
2023-05-19T13:13:14.788Z,25.20
2023-05-19T13:15:43.477Z,25.10
2023-05-19T13:18:13.140Z,24.40
2023-05-19T13:20:42.244Z,25.00
2023-05-19T13:23:12.631Z,24.70
2023-05-19T13:25:40.424Z,24.80
2023-05-19T13:28:08.419Z,24.30
2023-05-19T13:30:37.051Z,24.50
2023-05-19T13:33:04.250Z,24.60
2023-05-19T13:35:37.145Z,25.40
2023-05-19T13:38:10.304Z,24.80
2023-05-19T13:40:38.379Z,25.10
2023-05-19T13:43:06.306Z,24.60
2023-05-19T13:45:33.320Z,24.30
2023-05-19T13:48:00.340Z,24.60
2023-05-19T13:50:27.249Z,25.00
2023-05-19T13:52:54.212Z,24.70
2023-05-19T13:55:21.848Z,24.30
2023-05-19T13:57:49.596Z,23.80
2023-05-19T14:00:18.228Z,23.60
2023-05-19T14:02:45.507Z,24.60
2023-05-19T14:05:12.654Z,24.70
2023-05-19T14:07:39.832Z,25.30
2023-05-19T14:10:07.474Z,25.20
2023-05-19T14:12:51.717Z,25.00
2023-05-19T14:15:23.836Z,25.30
2023-05-19T14:17:50.970Z,25.20
2023-05-19T14:20:17.925Z,25.60
2023-05-19T14:22:44.879Z,25.50
2023-05-19T14:25:11.755Z,25.30
2023-05-19T14:27:40.270Z,25.20
2023-05-19T14:30:08.322Z,25.60
2023-05-19T14:35:02.375Z,25.20
2023-05-19T14:37:29.167Z,25.40
2023-05-19T14:39:57.766Z,26.10
2023-05-19T14:42:25.049Z,25.30
2023-05-19T14:44:51.968Z,25.20
2023-05-19T14:47:18.921Z,25.80
2023-05-19T14:49:46.270Z,26.20
2023-05-19T14:52:13.357Z,26.60
2023-05-19T14:54:40.575Z,26.70
2023-05-19T14:57:08.187Z,26.80
2023-05-19T14:59:38.412Z,26.70
2023-05-19T15:02:05.745Z,26.80
2023-05-19T15:04:32.595Z,27.10
2023-05-19T15:09:32.604Z,27.60
2023-05-19T15:12:01.215Z,27.80
2023-05-19T15:14:30.104Z,27.90
2023-05-19T15:16:57.989Z,28.00
2023-05-19T15:19:25.138Z,28.00
2023-05-19T15:21:52.123Z,27.80
2023-05-19T15:24:19.179Z,28.00
2023-05-19T15:26:46.203Z,28.00
2023-05-19T15:29:14.144Z,28.10
2023-05-19T15:31:41.357Z,27.90
2023-05-19T15:34:08.439Z,27.90
2023-05-19T15:36:35.582Z,28.00
2023-05-19T15:39:03.839Z,27.60
2023-05-19T15:41:30.760Z,27.70
2023-05-19T15:44:00.205Z,28.00
2023-05-19T15:46:27.441Z,28.00
2023-05-19T15:48:54.555Z,27.60
2023-05-19T15:51:21.542Z,27.50
2023-05-19T15:53:48.571Z,27.60
2023-05-19T15:56:15.875Z,28.00
2023-05-19T15:58:42.701Z,28.10
2023-05-19T16:01:09.826Z,28.10
2023-05-19T16:03:36.834Z,27.80
2023-05-19T16:06:04.123Z,27.70
2023-05-19T16:08:31.175Z,27.50
2023-05-19T16:10:58.056Z,27.50
2023-05-19T16:13:25.049Z,27.60
2023-05-19T16:15:52.592Z,27.30
2023-05-19T16:18:19.762Z,27.30
2023-05-19T16:20:46.628Z,27.20
2023-05-19T16:23:13.443Z,27.40
2023-05-19T16:25:41.457Z,27.50
2023-05-19T16:28:08.609Z,27.90
2023-05-19T16:30:35.845Z,27.90
2023-05-19T16:33:03.047Z,27.70
2023-05-19T16:35:30.180Z,27.80
2023-05-19T16:37:57.146Z,27.80
2023-05-19T16:40:24.308Z,27.70
2023-05-19T16:42:53.151Z,27.30
2023-05-19T16:45:20.097Z,27.10
2023-05-19T16:47:47.002Z,27.40
2023-05-19T16:50:13.992Z,27.60
2023-05-19T16:52:40.843Z,27.80
2023-05-19T16:55:08.121Z,27.70
2023-05-19T16:57:35.066Z,28.00
2023-05-19T17:00:01.939Z,28.10
2023-05-19T17:02:28.911Z,28.20
2023-05-19T17:04:55.913Z,28.40
2023-05-19T17:07:22.726Z,28.30
2023-05-19T17:09:49.566Z,28.60
2023-05-19T17:12:16.458Z,29.00
2023-05-19T17:14:44.131Z,28.80
2023-05-19T17:17:11.078Z,28.80
2023-05-19T17:19:37.908Z,29.20
2023-05-19T17:22:05.041Z,30.20
2023-05-19T17:24:33.307Z,31.30
2023-05-19T17:27:00.861Z,31.90
2023-05-19T17:29:28.037Z,32.60
2023-05-19T17:31:55.459Z,33.00
2023-05-19T17:34:22.557Z,33.30
2023-05-19T17:36:52.138Z,33.50
2023-05-19T17:39:20.292Z,33.90
2023-05-19T17:41:47.243Z,34.20
2023-05-19T17:44:14.874Z,34.40
2023-05-19T17:46:41.691Z,34.70
2023-05-19T17:49:10.580Z,35.10
2023-05-19T17:51:37.757Z,35.40
2023-05-19T17:54:05.366Z,35.50
2023-05-19T17:56:36.928Z,36.30
2023-05-19T17:59:03.974Z,37.40
2023-05-19T18:01:32.270Z,38.70
2023-05-19T18:03:59.348Z,39.50
2023-05-19T18:06:27.778Z,39.90
2023-05-19T18:08:58.096Z,40.50
2023-05-19T18:11:26.397Z,41.20
2023-05-19T18:13:53.336Z,41.60
2023-05-19T18:16:20.288Z,42.00
2023-05-19T18:18:50.442Z,42.30
2023-05-19T18:21:18.201Z,42.50
2023-05-19T18:23:45.819Z,43.00
2023-05-19T18:26:13.246Z,43.30
2023-05-19T18:28:41.187Z,43.60
2023-05-19T18:31:17.390Z,44.00
2023-05-19T18:33:45.089Z,44.20
2023-05-19T18:36:12.360Z,44.50
2023-05-19T18:38:39.569Z,45.00
2023-05-19T18:41:07.337Z,45.50
2023-05-19T18:43:34.472Z,45.80
2023-05-19T18:46:01.443Z,46.20
2023-05-19T18:48:29.666Z,46.50
2023-05-19T18:50:57.230Z,47.00
2023-05-19T18:53:24.133Z,47.40
2023-05-19T18:55:51.031Z,47.90
2023-05-19T18:58:18.768Z,48.20
2023-05-19T19:00:45.790Z,48.50
2023-05-19T19:03:12.844Z,48.70
2023-05-19T19:05:40.122Z,48.90
2023-05-19T19:08:07.129Z,49.20
2023-05-19T19:10:37.317Z,49.30
2023-05-19T19:13:04.214Z,49.40
2023-05-19T19:15:31.704Z,49.70
2023-05-19T19:17:58.556Z,49.90
2023-05-19T19:20:25.499Z,50.20
2023-05-19T19:22:52.945Z,50.40
2023-05-19T19:25:21.896Z,50.60
2023-05-19T19:27:50.079Z,51.00
2023-05-19T19:30:16.967Z,51.00
2023-05-19T19:32:43.923Z,51.40
2023-05-19T19:35:11.267Z,51.50
2023-05-19T19:37:38.275Z,51.50
2023-05-19T19:40:06.185Z,51.90
2023-05-19T19:42:33.167Z,52.00
2023-05-19T19:45:00.234Z,52.10
2023-05-19T19:47:27.457Z,52.20
2023-05-19T19:49:54.336Z,52.30
2023-05-19T19:52:21.156Z,52.50
2023-05-19T19:54:48.198Z,52.80
2023-05-19T19:57:17.216Z,52.80
2023-05-19T19:59:44.132Z,52.90
2023-05-19T20:02:11.209Z,53.00
2023-05-19T20:04:38.380Z,53.10
2023-05-19T20:07:05.325Z,53.10
2023-05-19T20:09:32.168Z,53.30
2023-05-19T20:12:00.515Z,53.50
2023-05-19T20:14:27.382Z,53.50
2023-05-19T20:16:54.286Z,53.60
2023-05-19T20:19:21.596Z,53.80
2023-05-19T20:21:48.492Z,53.90
2023-05-19T20:24:15.399Z,53.90
2023-05-19T20:26:42.258Z,54.00
2023-05-19T20:29:09.185Z,53.80
2023-05-19T20:31:36.113Z,53.60
2023-05-19T20:34:03.054Z,53.40
2023-05-19T20:36:30.063Z,53.30
2023-05-19T20:38:57.007Z,53.20
2023-05-19T20:41:23.820Z,53.20
2023-05-19T20:43:51.013Z,53.20
2023-05-19T20:46:18.040Z,53.30
2023-05-19T20:48:44.927Z,53.40
2023-05-19T20:51:11.827Z,53.50
2023-05-19T20:53:38.789Z,53.80
2023-05-19T20:56:06.863Z,53.90
2023-05-19T20:58:33.741Z,54.10
2023-05-19T21:01:00.700Z,54.30
2023-05-19T21:03:28.620Z,54.60
2023-05-19T21:05:56.451Z,54.70
2023-05-19T21:08:24.164Z,54.90
2023-05-19T21:10:51.210Z,55.20
2023-05-19T21:13:18.606Z,55.30
2023-05-19T21:15:45.543Z,55.20
2023-05-19T21:18:12.944Z,55.40
2023-05-19T21:20:40.016Z,55.50
2023-05-19T21:23:07.010Z,55.80
2023-05-19T21:25:34.483Z,55.80
2023-05-19T21:28:02.051Z,55.90
2023-05-19T21:30:28.852Z,55.80
2023-05-19T21:32:55.820Z,56.00
2023-05-19T21:35:22.770Z,56.10
2023-05-19T21:37:49.617Z,56.10
2023-05-19T21:40:16.510Z,56.30
2023-05-19T21:42:43.377Z,56.40
2023-05-19T21:45:10.690Z,56.80
2023-05-19T21:47:37.698Z,56.80
2023-05-19T21:50:04.897Z,56.90
2023-05-19T21:52:31.748Z,57.00
2023-05-19T21:54:58.843Z,57.00
2023-05-19T21:57:25.711Z,57.10
2023-05-19T21:59:52.535Z,57.10
2023-05-19T22:02:19.433Z,57.10
2023-05-19T22:04:46.385Z,57.20
2023-05-19T22:07:13.313Z,57.20
2023-05-19T22:09:40.157Z,57.30
2023-05-19T22:12:07.642Z,57.20
2023-05-19T22:14:35.158Z,57.20
2023-05-19T22:17:02.533Z,57.30
2023-05-19T22:19:29.511Z,57.20
2023-05-19T22:22:09.912Z,57.20
2023-05-19T22:24:41.535Z,57.20
2023-05-19T22:27:08.934Z,57.20
2023-05-19T22:29:38.711Z,57.30
2023-05-19T22:32:09.228Z,57.20
2023-05-19T22:34:36.246Z,57.20
2023-05-19T22:37:03.664Z,57.20
2023-05-19T22:39:30.663Z,57.20
2023-05-19T22:41:57.690Z,57.20
2023-05-19T22:44:24.547Z,57.20
2023-05-19T22:46:51.407Z,57.30
2023-05-19T22:49:18.781Z,57.30
2023-05-19T22:51:46.104Z,57.40
2023-05-19T22:54:13.105Z,57.40
2023-05-19T22:56:40.061Z,57.50
2023-05-19T22:59:06.986Z,57.50
2023-05-19T23:01:33.992Z,57.50
2023-05-19T23:04:01.304Z,57.40
2023-05-19T23:06:28.290Z,57.50
2023-05-19T23:09:02.895Z,57.60
2023-05-19T23:11:30.253Z,57.60
2023-05-19T23:13:57.094Z,57.50
2023-05-19T23:16:24.093Z,57.50
2023-05-19T23:18:51.022Z,57.50
2023-05-19T23:21:18.016Z,57.50
2023-05-19T23:23:44.922Z,57.50
2023-05-19T23:26:13.425Z,57.60
2023-05-19T23:28:42.229Z,57.60
2023-05-19T23:31:09.799Z,57.50
2023-05-19T23:33:36.958Z,57.50
2023-05-19T23:36:08.698Z,57.70
2023-05-19T23:38:36.912Z,57.60
2023-05-19T23:41:03.826Z,57.70
2023-05-19T23:43:32.768Z,57.80
2023-05-19T23:46:00.220Z,57.80
2023-05-19T23:48:28.745Z,57.80
2023-05-19T23:50:55.767Z,57.90
2023-05-19T23:53:22.701Z,58.00
2023-05-19T23:55:49.713Z,58.10
2023-05-19T23:58:16.563Z,58.10
